Milwaukee, Wisconsin
Current Conditions -  °F | °C
As of 12:52 PM on Saturday 20 Dec 2014 (Local Time) from KMKE Reporting Station
Overcast Overcast  
Wind Chill: 31°   Ceiling: 4700
Heat Index: 31°   Visibility: 10mi
Dew Point: 20°   Wind: 3mph
Humidity: 64%   Direction: 250°WSW
Pressure: 30.24"   Gusts: NA
Location:  43.04°N, 87.91°W
Report Text: KMKE 201852Z 25003KT 10SM OVC047 M01/M07 A3024 RMK AO2 SLP250 T10061067
Loading
Personal Weather Stations






























Interactive Weather Map New forecast layout! Learn more

10-Day Weather Forecast

Advertisements
Track Severe Weather on mobile